Time;durP1;ratioP1;P1;durP2;ratioP2;P2;SDS_P1;SDS_P2;PMS_P1;PMS_P2;Temp;Humidity;BMP_temperature;BMP_pressure;BME280_temperature;BME280_humidity;BME280_pressure;Samples;Min_cycle;Max_cycle;Signal;HPM_P1;HPM_P2
2023/04/28 00:02:29;;;;;;;34.72;15.63;;;;;;;;;;6287541;22;20448;-77
2023/04/28 00:05:14;;;;;;;44.97;17.35;;;;;;;;;;6287669;22;20016;-79
2023/04/28 00:08:02;;;;;;;38.90;14.27;;;;;;;;;;6287269;22;20023;-77
2023/04/28 00:10:46;;;;;;;40.53;14.95;;;;;;;;;;6287356;22;20015;-77
2023/04/28 00:13:32;;;;;;;38.92;15.43;;;;;;;;;;6287439;22;20015;-78
2023/04/28 00:16:18;;;;;;;37.10;14.50;;;;;;;;;;6287794;22;20023;-78
2023/04/28 00:19:03;;;;;;;36.75;14.23;;;;;;;;;;6287377;22;20449;-78
2023/04/28 00:21:49;;;;;;;44.95;15.15;;;;;;;;;;6284893;22;20330;-77
2023/04/28 00:24:44;;;;;;;42.35;14.38;;;;;;;;;;6286136;22;20023;-78
2023/04/28 00:27:32;;;;;;;24.38;10.68;;;;;;;;;;6287743;22;20019;-78
2023/04/28 00:30:18;;;;;;;18.95;8.68;;;;;;;;;;6286269;22;20016;-78
2023/04/28 00:33:03;;;;;;;19.38;8.10;;;;;;;;;;6286110;22;20020;-78
2023/04/28 00:35:57;;;;;;;20.33;7.97;;;;;;;;;;6287618;22;20020;-78
2023/04/28 00:38:42;;;;;;;18.70;8.20;;;;;;;;;;6287380;22;20015;-79
2023/04/28 00:41:28;;;;;;;16.77;9.13;;;;;;;;;;6285988;22;20020;-79
2023/04/28 00:44:14;;;;;;;18.98;9.85;;;;;;;;;;6287170;22;20019;-79
2023/04/28 00:47:00;;;;;;;19.38;9.85;;;;;;;;;;6287057;22;20357;-78
2023/04/28 00:49:46;;;;;;;22.83;10.10;;;;;;;;;;6285836;22;20020;-79
2023/04/28 00:52:32;;;;;;;20.83;9.55;;;;;;;;;;6286952;22;20023;-78
2023/04/28 00:55:20;;;;;;;23.55;10.85;;;;;;;;;;6287312;22;20024;-79
2023/04/28 00:58:11;;;;;;;21.23;9.50;;;;;;;;;;6286139;22;20016;-78
2023/04/28 01:01:06;;;;;;;19.25;9.73;;;;;;;;;;6286950;22;20016;-79
2023/04/28 01:03:57;;;;;;;21.17;9.68;;;;;;;;;;6286077;22;20020;-78
2023/04/28 01:06:42;;;;;;;24.50;10.25;;;;;;;;;;6285773;22;20020;-79
2023/04/28 01:09:28;;;;;;;26.65;11.05;;;;;;;;;;6285818;22;20016;-77
2023/04/28 01:12:13;;;;;;;28.63;12.60;;;;;;;;;;6285856;22;20016;-78
2023/04/28 01:15:01;;;;;;;35.72;14.20;;;;;;;;;;6285596;22;20020;-79
2023/04/28 01:17:47;;;;;;;29.35;13.25;;;;;;;;;;6285969;22;20019;-79
2023/04/28 01:20:32;;;;;;;26.27;11.75;;;;;;;;;;6286775;22;20020;-78
2023/04/28 01:23:19;;;;;;;22.92;11.45;;;;;;;;;;6285534;22;20024;-78
2023/04/28 01:26:05;;;;;;;24.88;10.63;;;;;;;;;;6285689;22;20020;-79
2023/04/28 01:28:53;;;;;;;21.20;9.68;;;;;;;;;;6285775;22;20020;-78
2023/04/28 01:31:39;;;;;;;19.40;9.57;;;;;;;;;;6286279;22;20329;-78
2023/04/28 01:34:25;;;;;;;12.95;7.82;;;;;;;;;;6285962;22;20020;-78
2023/04/28 01:37:10;;;;;;;13.75;7.38;;;;;;;;;;6285783;22;20016;-78
2023/04/28 01:39:55;;;;;;;11.80;7.15;;;;;;;;;;6285829;22;20023;-78
2023/04/28 01:42:41;;;;;;;16.02;7.90;;;;;;;;;;6286264;22;20020;-79
2023/04/28 01:45:27;;;;;;;17.73;10.70;;;;;;;;;;6285823;22;20024;-78
2023/04/28 01:48:12;;;;;;;13.40;7.30;;;;;;;;;;6287066;22;20019;-78
2023/04/28 01:50:58;;;;;;;12.25;6.97;;;;;;;;;;6288851;22;20023;-77
2023/04/28 01:53:43;;;;;;;12.07;6.90;;;;;;;;;;6287790;22;20337;-78
2023/04/28 01:56:29;;;;;;;13.00;6.75;;;;;;;;;;6287374;22;20338;-77
2023/04/28 01:59:15;;;;;;;14.15;6.25;;;;;;;;;;6287344;22;20015;-77
2023/04/28 02:02:00;;;;;;;12.52;6.45;;;;;;;;;;6287179;22;20016;-77
2023/04/28 02:04:45;;;;;;;13.90;6.25;;;;;;;;;;6287646;22;20019;-77
2023/04/28 02:07:31;;;;;;;12.98;5.97;;;;;;;;;;6288465;22;20020;-77
2023/04/28 02:10:17;;;;;;;12.30;7.05;;;;;;;;;;6288471;22;20019;-77
2023/04/28 02:13:02;;;;;;;11.63;6.88;;;;;;;;;;6287095;22;20020;-77
2023/04/28 02:15:48;;;;;;;10.05;6.45;;;;;;;;;;6285655;22;20023;-77
2023/04/28 02:18:35;;;;;;;11.25;5.90;;;;;;;;;;6285772;22;20353;-77
2023/04/28 02:21:20;;;;;;;13.70;6.47;;;;;;;;;;6286043;22;20020;-77
2023/04/28 02:24:06;;;;;;;11.00;5.63;;;;;;;;;;6288158;22;20020;-78
2023/04/28 02:26:52;;;;;;;10.13;5.45;;;;;;;;;;6288287;22;20015;-78
2023/04/28 02:29:38;;;;;;;10.02;5.75;;;;;;;;;;6287073;22;20045;-78
2023/04/28 02:32:24;;;;;;;14.30;5.40;;;;;;;;;;6287287;22;20016;-77
2023/04/28 02:35:09;;;;;;;14.73;6.05;;;;;;;;;;6287287;22;20019;-77
2023/04/28 02:37:55;;;;;;;11.13;5.80;;;;;;;;;;6288204;22;20019;-78
2023/04/28 02:40:40;;;;;;;11.60;5.00;;;;;;;;;;6286909;22;20016;-78
2023/04/28 02:43:27;;;;;;;14.50;6.53;;;;;;;;;;6288177;22;20351;-77
2023/04/28 02:46:12;;;;;;;18.30;12.45;;;;;;;;;;6286851;22;20019;-77
2023/04/28 02:48:58;;;;;;;14.07;7.40;;;;;;;;;;6286874;22;20054;-77
2023/04/28 02:51:43;;;;;;;13.02;6.30;;;;;;;;;;6286987;22;20016;-77
2023/04/28 02:54:28;;;;;;;9.68;5.30;;;;;;;;;;6287175;22;20019;-77
2023/04/28 02:57:15;;;;;;;13.60;5.65;;;;;;;;;;6288036;22;20016;-77
2023/04/28 03:00:00;;;;;;;15.90;8.50;;;;;;;;;;6287998;22;20019;-77
2023/04/28 03:02:56;;;;;;;24.40;9.45;;;;;;;;;;6286813;22;20015;-77
2023/04/28 03:05:41;;;;;;;16.17;8.40;;;;;;;;;;6287858;22;20023;-77
2023/04/28 03:08:27;;;;;;;19.75;8.70;;;;;;;;;;6287132;22;20020;-78
2023/04/28 03:11:12;;;;;;;13.75;7.65;;;;;;;;;;6265295;22;20015;-77
2023/04/28 03:13:58;;;;;;;15.75;7.68;;;;;;;;;;6287663;22;20023;-77
2023/04/28 03:16:43;;;;;;;18.08;8.57;;;;;;;;;;6286998;22;20020;-77
2023/04/28 03:19:29;;;;;;;29.00;13.05;;;;;;;;;;6286559;22;20342;-78
2023/04/28 03:22:15;;;;;;;25.00;11.40;;;;;;;;;;6286228;22;20079;-77
2023/04/28 03:25:01;;;;;;;18.95;9.90;;;;;;;;;;6286828;22;20023;-77
2023/04/28 03:27:49;;;;;;;18.35;9.55;;;;;;;;;;6286473;22;20064;-77
2023/04/28 03:30:35;;;;;;;25.52;11.93;;;;;;;;;;6286835;22;20019;-77
2023/04/28 03:33:21;;;;;;;29.52;14.25;;;;;;;;;;6287754;22;20015;-78
2023/04/28 03:36:06;;;;;;;31.73;11.38;;;;;;;;;;6287070;22;20024;-77
2023/04/28 03:38:52;;;;;;;31.58;12.30;;;;;;;;;;6286370;22;20020;-77
2023/04/28 03:41:38;;;;;;;24.30;11.57;;;;;;;;;;6286181;22;20019;-78
2023/04/28 03:44:47;;;;;;;23.15;10.85;;;;;;;;;;6269872;22;20441;-77
2023/04/28 03:47:33;;;;;;;31.27;11.38;;;;;;;;;;6286136;22;20016;-78
2023/04/28 03:50:18;;;;;;;17.77;8.40;;;;;;;;;;6286320;22;20087;-78
2023/04/28 03:53:03;;;;;;;15.35;7.35;;;;;;;;;;6286265;22;20019;-78
2023/04/28 03:55:49;;;;;;;13.80;6.95;;;;;;;;;;6286019;22;20019;-78
2023/04/28 03:58:36;;;;;;;17.27;8.27;;;;;;;;;;6286193;22;20433;-78
2023/04/28 04:01:22;;;;;;;19.08;8.75;;;;;;;;;;6287284;22;20334;-77
2023/04/28 04:04:09;;;;;;;18.75;9.82;;;;;;;;;;6286347;22;20023;-79
2023/04/28 04:06:54;;;;;;;19.63;9.85;;;;;;;;;;6286058;22;20020;-79
2023/04/28 04:09:40;;;;;;;18.67;10.65;;;;;;;;;;6285961;22;20016;-79
2023/04/28 04:12:25;;;;;;;17.35;9.85;;;;;;;;;;6285616;22;20016;-78
2023/04/28 04:15:11;;;;;;;23.92;9.95;;;;;;;;;;6286845;22;20020;-79
2023/04/28 04:17:57;;;;;;;17.20;9.40;;;;;;;;;;6285861;22;20019;-79
2023/04/28 04:20:49;;;;;;;27.15;9.98;;;;;;;;;;6285068;22;20547;-79
2023/04/28 04:23:35;;;;;;;25.33;10.32;;;;;;;;;;6285621;22;20020;-79
2023/04/28 04:26:20;;;;;;;16.98;9.60;;;;;;;;;;6287278;22;20445;-77
2023/04/28 04:29:08;;;;;;;17.60;9.40;;;;;;;;;;6286022;22;20016;-77
2023/04/28 04:31:53;;;;;;;23.67;10.73;;;;;;;;;;6286385;22;20333;-78
2023/04/28 04:34:39;;;;;;;26.30;10.88;;;;;;;;;;6285747;22;20349;-78
2023/04/28 04:37:26;;;;;;;28.38;12.20;;;;;;;;;;6286108;22;20019;-78
2023/04/28 04:40:18;;;;;;;24.92;11.57;;;;;;;;;;6286695;22;20189;-78
2023/04/28 04:43:08;;;;;;;27.55;12.52;;;;;;;;;;6285683;22;20440;-78
2023/04/28 04:46:02;;;;;;;26.13;13.03;;;;;;;;;;6285622;22;20024;-79
2023/04/28 04:48:53;;;;;;;31.20;11.52;;;;;;;;;;6285732;22;20016;-78
2023/04/28 04:51:38;;;;;;;24.00;10.65;;;;;;;;;;6285965;22;20012;-80
2023/04/28 04:54:24;;;;;;;34.50;13.48;;;;;;;;;;6307575;22;20016;-79
2023/04/28 04:57:10;;;;;;;28.63;13.98;;;;;;;;;;6285927;22;20015;-79
2023/04/28 05:00:16;;;;;;;24.90;11.02;;;;;;;;;;6287098;22;20019;-79
2023/04/28 05:03:02;;;;;;;23.17;10.25;;;;;;;;;;6285541;22;20015;-78
2023/04/28 05:05:53;;;;;;;49.30;25.17;;;;;;;;;;6285335;22;20020;-78
2023/04/28 05:08:49;;;;;;;16.75;8.93;;;;;;;;;;6285325;22;20024;-78
2023/04/28 05:11:34;;;;;;;23.48;10.23;;;;;;;;;;6285350;22;20438;-79
2023/04/28 05:14:19;;;;;;;14.75;7.28;;;;;;;;;;6286972;22;20024;-79
2023/04/28 05:17:11;;;;;;;13.80;7.47;;;;;;;;;;6285622;22;20450;-79
2023/04/28 05:20:05;;;;;;;12.73;6.57;;;;;;;;;;6285581;22;20015;-79
2023/04/28 05:22:51;;;;;;;10.77;5.55;;;;;;;;;;6284980;22;20019;-79
2023/04/28 05:25:38;;;;;;;13.57;6.30;;;;;;;;;;6284880;22;20015;-79
2023/04/28 05:28:23;;;;;;;11.13;6.90;;;;;;;;;;6286962;22;20015;-79
2023/04/28 05:31:13;;;;;;;19.67;6.97;;;;;;;;;;6288143;22;20015;-79
2023/04/28 05:33:58;;;;;;;15.73;7.45;;;;;;;;;;6288618;22;20020;-79
2023/04/28 05:36:44;;;;;;;16.38;7.13;;;;;;;;;;6285939;22;20437;-79
2023/04/28 05:39:33;;;;;;;15.27;6.15;;;;;;;;;;6285684;22;20437;-79
2023/04/28 05:42:22;;;;;;;11.48;6.57;;;;;;;;;;6287841;22;20047;-78
2023/04/28 05:45:09;;;;;;;20.60;5.93;;;;;;;;;;6287384;22;20024;-78
2023/04/28 05:48:00;;;;;;;6.80;4.20;;;;;;;;;;6287245;22;20016;-78
2023/04/28 05:50:48;;;;;;;13.68;6.22;;;;;;;;;;6287852;22;20015;-77
2023/04/28 05:53:34;;;;;;;11.25;6.38;;;;;;;;;;6288521;22;20022;-79
2023/04/28 05:56:20;;;;;;;10.38;6.53;;;;;;;;;;6286011;22;20024;-81
2023/04/28 05:59:11;;;;;;;8.50;4.03;;;;;;;;;;6286606;22;20019;-78
2023/04/28 06:02:00;;;;;;;12.23;6.45;;;;;;;;;;6287154;22;20052;-78
2023/04/28 06:04:46;;;;;;;11.30;5.35;;;;;;;;;;6288306;22;20020;-78
2023/04/28 06:07:32;;;;;;;14.20;6.10;;;;;;;;;;6308809;22;20016;-78
2023/04/28 06:10:18;;;;;;;9.13;5.03;;;;;;;;;;6288193;22;20016;-78
2023/04/28 06:13:08;;;;;;;13.25;7.95;;;;;;;;;;6287209;22;20019;-79
2023/04/28 06:15:54;;;;;;;16.58;8.38;;;;;;;;;;6286973;22;20020;-80
2023/04/28 06:18:40;;;;;;;21.67;9.75;;;;;;;;;;6286808;22;20016;-78
2023/04/28 06:21:27;;;;;;;17.85;9.77;;;;;;;;;;6285818;22;20019;-78
2023/04/28 06:24:13;;;;;;;23.05;10.88;;;;;;;;;;6286886;22;20023;-79
2023/04/28 06:27:05;;;;;;;18.85;10.25;;;;;;;;;;6287429;22;20016;-79
2023/04/28 06:29:50;;;;;;;15.18;8.52;;;;;;;;;;6286837;22;20016;-79
2023/04/28 06:32:36;;;;;;;14.43;8.38;;;;;;;;;;6286962;22;20016;-78
2023/04/28 06:35:22;;;;;;;8.80;5.43;;;;;;;;;;6287607;22;20103;-80
2023/04/28 06:38:08;;;;;;;16.45;8.65;;;;;;;;;;6287016;22;20020;-79
2023/04/28 06:41:00;;;;;;;14.30;8.55;;;;;;;;;;6287045;22;20019;-79
2023/04/28 06:43:45;;;;;;;18.35;9.05;;;;;;;;;;6286704;22;20020;-79
2023/04/28 06:46:40;;;;;;;13.15;7.35;;;;;;;;;;6287866;22;20023;-79
2023/04/28 06:49:28;;;;;;;11.35;7.28;;;;;;;;;;6288008;22;20020;-79
2023/04/28 06:52:17;;;;;;;16.60;8.10;;;;;;;;;;6286776;22;20023;-79
2023/04/28 06:55:15;;;;;;;15.93;7.93;;;;;;;;;;6286789;22;20020;-80
2023/04/28 06:58:00;;;;;;;9.07;5.20;;;;;;;;;;6285330;22;20023;-77
2023/04/28 07:00:46;;;;;;;10.52;5.60;;;;;;;;;;6285787;22;20015;-80
2023/04/28 07:03:36;;;;;;;13.18;7.70;;;;;;;;;;6287691;22;20126;-78
2023/04/28 07:06:27;;;;;;;13.70;7.60;;;;;;;;;;6288574;22;20330;-78
2023/04/28 07:09:14;;;;;;;5.35;3.17;;;;;;;;;;6287994;22;20015;-78
2023/04/28 07:12:00;;;;;;;14.52;6.95;;;;;;;;;;6287568;22;20023;-78
2023/04/28 07:14:45;;;;;;;15.65;8.50;;;;;;;;;;6287366;22;20020;-78
2023/04/28 07:17:31;;;;;;;13.02;7.18;;;;;;;;;;6287154;22;20019;-78
2023/04/28 07:20:16;;;;;;;10.88;6.00;;;;;;;;;;6287408;22;20369;-77
2023/04/28 07:23:03;;;;;;;13.65;7.15;;;;;;;;;;6280363;22;20341;-78
2023/04/28 07:25:56;;;;;;;16.15;7.65;;;;;;;;;;6287692;22;20019;-78
2023/04/28 07:28:43;;;;;;;14.60;7.45;;;;;;;;;;6287567;22;20015;-78
2023/04/28 07:31:28;;;;;;;14.77;7.63;;;;;;;;;;6287813;22;20020;-79
2023/04/28 07:34:18;;;;;;;15.57;7.22;;;;;;;;;;6287982;22;20016;-79
2023/04/28 07:37:05;;;;;;;14.65;7.68;;;;;;;;;;6287469;22;20019;-79
2023/04/28 07:39:51;;;;;;;14.10;7.28;;;;;;;;;;6287600;22;20012;-79
2023/04/28 07:42:37;;;;;;;10.93;4.68;;;;;;;;;;6288085;22;20020;-78
2023/04/28 07:45:22;;;;;;;10.30;5.72;;;;;;;;;;6286591;22;20019;-78
2023/04/28 07:48:08;;;;;;;12.02;6.47;;;;;;;;;;6287346;22;20019;-79
2023/04/28 07:50:53;;;;;;;13.20;7.32;;;;;;;;;;6287804;22;20425;-79
2023/04/28 07:53:39;;;;;;;14.30;6.38;;;;;;;;;;6287342;22;20337;-79
2023/04/28 07:56:30;;;;;;;10.60;6.07;;;;;;;;;;6287582;22;20015;-79
2023/04/28 07:59:20;;;;;;;12.68;7.18;;;;;;;;;;6287081;22;20024;-79
2023/04/28 08:02:13;;;;;;;7.30;3.67;;;;;;;;;;6287108;22;20015;-78
2023/04/28 08:04:59;;;;;;;8.68;4.10;;;;;;;;;;6287498;22;20016;-78
2023/04/28 08:07:49;;;;;;;8.27;4.45;;;;;;;;;;6287103;22;20441;-78
2023/04/28 08:10:34;;;;;;;13.18;6.53;;;;;;;;;;6287197;22;20019;-78
2023/04/28 08:13:26;;;;;;;8.85;4.00;;;;;;;;;;6287154;22;20015;-78
2023/04/28 08:16:17;;;;;;;7.35;3.58;;;;;;;;;;6287315;22;20020;-78
2023/04/28 08:19:03;;;;;;;10.60;4.60;;;;;;;;;;6286469;22;20016;-78
2023/04/28 08:21:55;;;;;;;12.43;7.55;;;;;;;;;;6284539;22;20015;-79
2023/04/28 08:24:46;;;;;;;5.10;2.83;;;;;;;;;;6287380;22;20019;-79
2023/04/28 08:27:38;;;;;;;4.10;2.30;;;;;;;;;;6287081;22;20016;-79
2023/04/28 08:30:28;;;;;;;44.80;28.98;;;;;;;;;;6287140;22;20020;-79
2023/04/28 08:33:18;;;;;;;15.80;8.35;;;;;;;;;;6287499;22;20441;-78
2023/04/28 08:36:04;;;;;;;8.63;3.50;;;;;;;;;;6286843;22;20019;-79
2023/04/28 08:38:52;;;;;;;12.77;6.15;;;;;;;;;;6286950;22;20015;-78
2023/04/28 08:41:40;;;;;;;8.98;2.80;;;;;;;;;;6287094;22;20019;-79
2023/04/28 08:44:26;;;;;;;4.47;2.33;;;;;;;;;;6287141;22;20337;-79
2023/04/28 08:47:13;;;;;;;8.98;2.85;;;;;;;;;;6287369;22;20020;-78
2023/04/28 08:50:03;;;;;;;8.20;3.55;;;;;;;;;;6287939;22;20441;-76
2023/04/28 08:52:55;;;;;;;6.40;2.90;;;;;;;;;;6288565;22;20418;-74
2023/04/28 08:55:43;;;;;;;4.40;2.53;;;;;;;;;;6286785;22;20016;-74
2023/04/28 08:58:30;;;;;;;7.07;3.03;;;;;;;;;;6287414;22;20064;-75
2023/04/28 09:01:15;;;;;;;9.93;2.65;;;;;;;;;;6287570;22;20342;-74
2023/04/28 09:04:06;;;;;;;6.78;2.63;;;;;;;;;;6288969;22;20020;-72
2023/04/28 09:06:52;;;;;;;5.82;2.38;;;;;;;;;;6289479;22;20016;-72
2023/04/28 09:09:44;;;;;;;5.75;2.45;;;;;;;;;;6289177;22;20020;-77
2023/04/28 09:12:37;;;;;;;5.18;2.30;;;;;;;;;;6289255;22;20020;-78
2023/04/28 09:15:35;;;;;;;3.88;2.00;;;;;;;;;;6288723;22;20342;-76
2023/04/28 09:18:26;;;;;;;3.40;1.95;;;;;;;;;;6287723;22;20015;-76
2023/04/28 09:21:12;;;;;;;8.73;2.85;;;;;;;;;;6289325;22;20016;-75
2023/04/28 09:23:57;;;;;;;3.67;1.90;;;;;;;;;;6288805;22;20023;-75
2023/04/28 09:26:51;;;;;;;6.18;2.03;;;;;;;;;;6266999;22;20015;-77
2023/04/28 09:29:38;;;;;;;3.33;2.30;;;;;;;;;;6264791;22;20016;-76
2023/04/28 09:32:26;;;;;;;4.43;2.17;;;;;;;;;;6258629;23;20016;-80
2023/04/28 09:35:11;;;;;;;4.65;2.25;;;;;;;;;;6258316;23;20020;-76
2023/04/28 09:37:57;;;;;;;6.43;2.47;;;;;;;;;;6258130;23;20442;-76
2023/04/28 09:41:01;;;;;;;6.45;2.08;;;;;;;;;;6257889;23;20020;-77
2023/04/28 09:43:50;;;;;;;5.05;2.10;;;;;;;;;;6236638;23;20020;-76
2023/04/28 09:46:36;;;;;;;3.72;1.90;;;;;;;;;;6258423;23;20349;-73
2023/04/28 09:49:23;;;;;;;5.13;2.13;;;;;;;;;;6257681;23;20020;-74
2023/04/28 09:52:15;;;;;;;9.88;3.35;;;;;;;;;;6257672;23;20020;-74
2023/04/28 09:55:05;;;;;;;6.55;2.63;;;;;;;;;;6257915;23;20020;-74
2023/04/28 09:58:00;;;;;;;8.75;2.80;;;;;;;;;;6235289;23;20377;-74
2023/04/28 10:00:58;;;;;;;4.70;2.67;;;;;;;;;;6237705;23;20024;-75
2023/04/28 10:03:52;;;;;;;5.88;2.25;;;;;;;;;;6257982;23;20023;-74
2023/04/28 10:06:39;;;;;;;5.45;2.30;;;;;;;;;;6257616;23;20020;-76
2023/04/28 10:09:26;;;;;;;4.47;2.50;;;;;;;;;;6258000;23;20442;-72
2023/04/28 10:12:24;;;;;;;6.18;1.80;;;;;;;;;;6257932;23;20020;-73
2023/04/28 10:15:12;;;;;;;3.22;1.60;;;;;;;;;;6234990;23;20349;-76
2023/04/28 10:18:04;;;;;;;6.28;2.58;;;;;;;;;;6257502;23;20016;-77
2023/04/28 10:20:59;;;;;;;5.53;2.50;;;;;;;;;;6257681;23;20346;-77
2023/04/28 10:24:02;;;;;;;1.92;1.27;;;;;;;;;;6277596;22;20016;-78
2023/04/28 10:27:07;;;;;;;3.88;1.20;;;;;;;;;;6288313;22;20020;-79
2023/04/28 10:29:52;;;;;;;2.00;1.50;;;;;;;;;;6289212;22;20027;-77
2023/04/28 10:32:44;;;;;;;7.70;1.38;;;;;;;;;;6288987;22;20020;-77
2023/04/28 10:35:39;;;;;;;6.10;2.58;;;;;;;;;;6289276;22;20015;-77
2023/04/28 10:38:25;;;;;;;3.53;1.80;;;;;;;;;;6289079;22;20338;-77
2023/04/28 10:41:32;;;;;;;5.93;1.83;;;;;;;;;;6287762;22;20011;-77
2023/04/28 10:44:30;;;;;;;16.95;5.22;;;;;;;;;;6288211;22;20020;-77
2023/04/28 10:47:21;;;;;;;5.63;2.38;;;;;;;;;;6288271;22;20024;-81
2023/04/28 10:50:08;;;;;;;6.70;2.15;;;;;;;;;;6288237;22;20020;-76
2023/04/28 10:52:53;;;;;;;30.60;12.88;;;;;;;;;;6288202;22;20429;-78
2023/04/28 10:55:39;;;;;;;10.50;2.05;;;;;;;;;;6287818;22;20019;-79
2023/04/28 10:58:28;;;;;;;4.13;1.90;;;;;;;;;;6288455;22;20345;-76
2023/04/28 11:01:20;;;;;;;3.35;1.90;;;;;;;;;;6287668;22;20020;-78
2023/04/28 11:04:12;;;;;;;7.88;2.10;;;;;;;;;;6288151;22;20019;-79
2023/04/28 11:07:11;;;;;;;2.78;1.88;;;;;;;;;;6287851;22;20354;-78
2023/04/28 11:10:01;;;;;;;4.07;1.80;;;;;;;;;;6287944;22;20433;-78
2023/04/28 11:13:32;;;;;;;5.38;2.03;;;;;;;;;;6288270;22;20020;-75
2023/04/28 11:16:24;;;;;;;3.08;1.88;;;;;;;;;;6287714;22;20016;-75
2023/04/28 11:19:18;;;;;;;7.05;2.95;;;;;;;;;;6287564;22;20019;-75
2023/04/28 11:22:17;;;;;;;7.82;2.22;;;;;;;;;;6284781;22;20305;-75
2023/04/28 11:25:03;;;;;;;2.63;1.60;;;;;;;;;;6264925;22;20020;-75
2023/04/28 11:27:49;;;;;;;3.28;1.80;;;;;;;;;;6287876;22;20019;-75
2023/04/28 11:30:34;;;;;;;5.00;1.90;;;;;;;;;;6287364;22;20015;-75
2023/04/28 11:33:21;;;;;;;4.78;2.05;;;;;;;;;;6287740;22;20349;-75
2023/04/28 11:36:06;;;;;;;6.65;1.90;;;;;;;;;;6287328;22;20024;-75
2023/04/28 11:38:55;;;;;;;5.32;1.70;;;;;;;;;;6277344;22;20026;-76
2023/04/28 11:41:42;;;;;;;4.53;1.60;;;;;;;;;;6287330;22;20020;-76
2023/04/28 11:44:34;;;;;;;4.43;2.20;;;;;;;;;;6287143;22;20016;-74
2023/04/28 11:47:32;;;;;;;3.80;1.60;;;;;;;;;;6286803;22;20430;-74
2023/04/28 11:50:35;;;;;;;4.93;1.95;;;;;;;;;;6287176;22;20020;-75
2023/04/28 11:53:44;;;;;;;4.60;2.15;;;;;;;;;;6287805;22;20016;-76
2023/04/28 11:56:38;;;;;;;6.10;2.00;;;;;;;;;;6287167;22;20019;-75
2023/04/28 11:59:33;;;;;;;7.88;3.13;;;;;;;;;;6287461;22;20016;-75
2023/04/28 12:02:28;;;;;;;5.93;1.92;;;;;;;;;;6287327;22;20016;-75
2023/04/28 12:05:20;;;;;;;5.22;1.80;;;;;;;;;;6287247;22;20020;-75
2023/04/28 12:08:11;;;;;;;5.80;2.00;;;;;;;;;;6286569;22;20019;-75
2023/04/28 12:11:12;;;;;;;15.18;2.78;;;;;;;;;;6287031;22;20019;-75
2023/04/28 12:14:07;;;;;;;6.20;1.60;;;;;;;;;;6287194;22;20023;-75
2023/04/28 12:16:53;;;;;;;7.93;3.50;;;;;;;;;;6287277;22;20012;-75
2023/04/28 12:19:44;;;;;;;5.65;2.22;;;;;;;;;;6263439;22;20111;-74
2023/04/28 12:22:49;;;;;;;3.60;1.58;;;;;;;;;;6281696;22;20342;-75
2023/04/28 12:25:43;;;;;;;3.65;1.90;;;;;;;;;;6286615;22;20342;-75
2023/04/28 12:28:40;;;;;;;5.30;1.77;;;;;;;;;;6287283;22;20019;-76
2023/04/28 12:31:31;;;;;;;2.90;1.70;;;;;;;;;;6287102;22;20023;-74
2023/04/28 12:34:17;;;;;;;7.35;2.10;;;;;;;;;;6287049;22;20020;-75
2023/04/28 12:37:04;;;;;;;5.78;2.22;;;;;;;;;;6286638;22;20024;-76
2023/04/28 12:39:49;;;;;;;5.43;2.13;;;;;;;;;;6286774;22;20019;-76
2023/04/28 12:42:34;;;;;;;6.68;2.05;;;;;;;;;;6286586;22;20016;-74
2023/04/28 12:45:20;;;;;;;6.30;2.60;;;;;;;;;;6286229;22;20355;-75
2023/04/28 12:48:07;;;;;;;3.20;1.55;;;;;;;;;;6286546;22;20016;-75
2023/04/28 12:50:52;;;;;;;25.30;12.07;;;;;;;;;;6286548;22;20438;-76
2023/04/28 12:53:38;;;;;;;4.47;2.30;;;;;;;;;;6286697;22;20016;-74
2023/04/28 12:56:29;;;;;;;6.25;2.85;;;;;;;;;;6286535;22;20441;-75
2023/04/28 12:59:20;;;;;;;5.13;2.03;;;;;;;;;;6286742;22;20019;-75
2023/04/28 13:02:05;;;;;;;7.82;2.63;;;;;;;;;;6286751;22;20016;-75
2023/04/28 13:04:55;;;;;;;7.88;2.30;;;;;;;;;;6286979;22;20020;-76
2023/04/28 13:07:41;;;;;;;5.00;2.17;;;;;;;;;;6286718;22;20480;-76
2023/04/28 13:10:27;;;;;;;12.73;4.43;;;;;;;;;;6286553;22;20338;-75
2023/04/28 13:13:13;;;;;;;11.88;2.95;;;;;;;;;;6286973;22;20012;-75
2023/04/28 13:15:59;;;;;;;10.13;2.55;;;;;;;;;;6286233;22;20016;-75
2023/04/28 13:18:45;;;;;;;6.82;2.30;;;;;;;;;;6287099;22;20019;-76
2023/04/28 13:21:31;;;;;;;9.50;2.45;;;;;;;;;;6285364;22;20024;-76
2023/04/28 13:24:21;;;;;;;3.70;2.20;;;;;;;;;;6287008;22;20023;-76
2023/04/28 13:27:08;;;;;;;6.93;2.08;;;;;;;;;;6287270;22;20024;-76
2023/04/28 13:29:59;;;;;;;6.97;2.38;;;;;;;;;;6264956;22;20016;-76
2023/04/28 13:32:44;;;;;;;5.53;2.05;;;;;;;;;;6286941;22;20023;-77
2023/04/28 13:35:30;;;;;;;10.02;3.58;;;;;;;;;;6286367;22;20019;-79
2023/04/28 13:38:21;;;;;;;5.00;2.33;;;;;;;;;;6286882;22;20019;-77
2023/04/28 13:41:06;;;;;;;4.82;2.20;;;;;;;;;;6286198;22;20346;-77
2023/04/28 13:43:52;;;;;;;3.75;1.75;;;;;;;;;;6286460;22;20024;-76
2023/04/28 13:46:37;;;;;;;7.63;1.80;;;;;;;;;;6286699;22;20011;-76
2023/04/28 13:49:24;;;;;;;5.85;2.08;;;;;;;;;;6288178;22;20019;-81
2023/04/28 13:52:10;;;;;;;6.20;2.25;;;;;;;;;;6288478;22;20016;-77
2023/04/28 13:54:56;;;;;;;8.02;2.22;;;;;;;;;;6288968;22;20020;-77
2023/04/28 13:57:41;;;;;;;5.35;1.92;;;;;;;;;;6290336;22;20016;-78
2023/04/28 14:00:27;;;;;;;4.45;1.90;;;;;;;;;;6288094;22;20433;-76
2023/04/28 14:03:14;;;;;;;4.90;2.05;;;;;;;;;;6288034;22;20015;-80
2023/04/28 14:05:59;;;;;;;3.38;1.88;;;;;;;;;;6288259;22;20019;-77
2023/04/28 14:08:45;;;;;;;5.47;2.05;;;;;;;;;;6286977;22;20437;-78
2023/04/28 14:11:30;;;;;;;4.40;1.90;;;;;;;;;;6286062;22;20019;-78
2023/04/28 14:14:16;;;;;;;7.78;3.03;;;;;;;;;;6288734;22;20020;-76
2023/04/28 14:17:07;;;;;;;4.25;2.03;;;;;;;;;;6287246;22;20015;-75
2023/04/28 14:19:57;;;;;;;4.60;2.00;;;;;;;;;;6286800;22;20346;-75
2023/04/28 14:22:42;;;;;;;10.32;2.47;;;;;;;;;;6282675;22;20349;-76
2023/04/28 14:25:29;;;;;;;4.65;2.20;;;;;;;;;;6288710;22;20016;-76
2023/04/28 14:28:14;;;;;;;9.25;3.90;;;;;;;;;;6288593;22;20016;-74
2023/04/28 14:31:05;;;;;;;10.45;3.03;;;;;;;;;;6288299;22;20372;-77
2023/04/28 14:33:50;;;;;;;4.80;2.13;;;;;;;;;;6288657;22;20019;-77
2023/04/28 14:36:42;;;;;;;7.75;2.80;;;;;;;;;;6288658;22;20012;-77
2023/04/28 14:39:28;;;;;;;6.90;2.70;;;;;;;;;;6288592;22;20020;-78
2023/04/28 14:42:14;;;;;;;4.13;2.42;;;;;;;;;;6288547;22;20019;-75
2023/04/28 14:45:07;;;;;;;5.38;3.17;;;;;;;;;;6287942;22;20016;-77
2023/04/28 14:47:53;;;;;;;9.10;2.78;;;;;;;;;;6288049;22;20008;-77
2023/04/28 14:50:44;;;;;;;6.30;1.98;;;;;;;;;;6288642;22;20016;-77
2023/04/28 14:53:34;;;;;;;7.07;2.50;;;;;;;;;;6288172;22;20437;-78
2023/04/28 14:56:19;;;;;;;5.05;2.20;;;;;;;;;;6288512;22;20011;-76
2023/04/28 14:59:04;;;;;;;8.07;2.30;;;;;;;;;;6288486;22;20023;-78
2023/04/28 15:01:51;;;;;;;7.47;2.38;;;;;;;;;;6288409;22;20019;-77
2023/04/28 15:04:37;;;;;;;5.13;2.13;;;;;;;;;;6288200;22;20015;-77
2023/04/28 15:07:30;;;;;;;10.68;3.40;;;;;;;;;;6288526;22;20015;-77
2023/04/28 15:10:20;;;;;;;7.13;2.42;;;;;;;;;;6288165;22;20019;-76
2023/04/28 15:13:10;;;;;;;9.80;2.10;;;;;;;;;;6266732;22;20019;-77
2023/04/28 15:15:56;;;;;;;7.10;2.47;;;;;;;;;;6287921;22;20015;-76
2023/04/28 15:18:43;;;;;;;10.32;3.38;;;;;;;;;;6288454;22;20015;-76
2023/04/28 15:21:33;;;;;;;9.85;2.70;;;;;;;;;;6286792;22;20019;-76
2023/04/28 15:27:45;;;;;;;8.27;2.33;;;;;;;;;;6288581;22;20294;-74
2023/04/28 15:30:32;;;;;;;5.47;2.15;;;;;;;;;;6288333;22;20020;-80
2023/04/28 15:33:23;;;;;;;6.20;2.28;;;;;;;;;;6288253;22;20011;-76
2023/04/28 15:36:09;;;;;;;7.45;2.55;;;;;;;;;;6288134;22;20019;-77
2023/04/28 15:39:05;;;;;;;4.65;2.10;;;;;;;;;;6288482;22;20015;-78
2023/04/28 15:41:54;;;;;;;5.72;2.78;;;;;;;;;;6287967;22;20429;-77
2023/04/28 15:44:40;;;;;;;6.60;2.97;;;;;;;;;;6287951;22;20019;-77
2023/04/28 15:47:25;;;;;;;16.83;3.53;;;;;;;;;;6287907;22;20436;-77
2023/04/28 15:50:11;;;;;;;12.07;3.53;;;;;;;;;;6287539;22;20011;-77
2023/04/28 15:52:57;;;;;;;10.68;3.40;;;;;;;;;;6287507;22;20023;-77
2023/04/28 15:55:43;;;;;;;6.80;2.50;;;;;;;;;;6287362;22;20015;-76
2023/04/28 15:58:29;;;;;;;7.28;2.63;;;;;;;;;;6288180;22;20016;-76
2023/04/28 16:01:16;;;;;;;8.45;2.50;;;;;;;;;;6287653;22;20019;-77
2023/04/28 16:04:02;;;;;;;8.73;2.83;;;;;;;;;;6286820;22;20015;-77
2023/04/28 16:06:49;;;;;;;12.00;3.40;;;;;;;;;;6287632;22;20349;-77
2023/04/28 16:09:33;;;;;;;12.73;3.88;;;;;;;;;;6287221;22;20020;-77
2023/04/28 16:12:23;;;;;;;11.20;4.25;;;;;;;;;;6287423;22;20027;-77
2023/04/28 16:15:11;;;;;;;11.07;3.20;;;;;;;;;;6287251;22;20020;-77
2023/04/28 16:18:02;;;;;;;15.20;4.95;;;;;;;;;;6265505;22;20445;-76
2023/04/28 16:20:48;;;;;;;14.07;4.70;;;;;;;;;;6286715;22;20015;-77
2023/04/28 16:23:35;;;;;;;11.57;4.47;;;;;;;;;;6277596;22;20016;-77
2023/04/28 16:26:22;;;;;;;10.18;4.40;;;;;;;;;;6286998;22;20019;-77
2023/04/28 16:29:08;;;;;;;11.52;3.50;;;;;;;;;;6284949;22;20015;-76
2023/04/28 16:31:58;;;;;;;10.95;3.88;;;;;;;;;;6286091;22;20019;-78
2023/04/28 16:34:44;;;;;;;8.68;2.97;;;;;;;;;;6286693;22;20016;-77
2023/04/28 16:37:30;;;;;;;9.60;3.80;;;;;;;;;;6286485;22;20019;-77
2023/04/28 16:40:15;;;;;;;9.98;3.15;;;;;;;;;;6286858;22;20019;-76
2023/04/28 16:43:06;;;;;;;12.25;3.45;;;;;;;;;;6287081;22;20016;-77